Findlay Airport


Codes: KFDY/FDY
Name: Findlay Airport
City: Findlay
Country: United States
Elevation: 813 ft.
Website:
Wikipedia:

Photos at Findlay Airport


   Photos courtesy of SpottingLog. You can add your own sightings and photos by signing up for a free trial today.



No photos found.

Weather at Findlay Airport


Time (UTC)DescriptionTempratureWindCloud coverageVisibilityPressureHumidity
13-Jun-2024 03:00Clear Sky25°C9 mph, S0%10000m1013hPa41%
13-Jun-2024 06:00Clear Sky22°C9 mph, SW8%10000m1013hPa51%
13-Jun-2024 09:00Few Clouds19°C9 mph, SW17%10000m1013hPa64%
13-Jun-2024 12:00Light Rain19°C9 mph, SW26%10000m1014hPa76%
13-Jun-2024 15:00Overcast Clouds22°C13 mph, SW86%10000m1013hPa67%
13-Jun-2024 18:00Broken Clouds28°C16 mph, SW77%10000m1012hPa48%
13-Jun-2024 21:00Scattered Clouds28°C16 mph, SW47%10000m1012hPa50%
14-Jun-2024 00:00Scattered Clouds25°C9 mph, SW26%10000m1012hPa69%
14-Jun-2024 03:00Light Rain22°C0 mph, SW94%10000m1012hPa85%
14-Jun-2024 06:00Light Rain20°C9 mph, SW91%10000m1012hPa88%
14-Jun-2024 09:00Moderate Rain19°C16 mph, W100%10000m1013hPa94%
14-Jun-2024 12:00Light Rain19°C7 mph, NW99%10000m1013hPa96%
14-Jun-2024 15:00Light Rain21°C7 mph, NW95%10000m1014hPa85%
14-Jun-2024 18:00Light Rain26°C11 mph, N75%10000m1014hPa53%
14-Jun-2024 21:00Clear Sky25°C9 mph, N0%10000m1014hPa48%
15-Jun-2024 00:00Scattered Clouds20°C7 mph, NE36%10000m1016hPa72%
15-Jun-2024 03:00Few Clouds16°C7 mph, E19%10000m1018hPa84%
15-Jun-2024 06:00Clear Sky14°C4 mph, E10%10000m1019hPa70%
15-Jun-2024 09:00Broken Clouds13°C7 mph, NE59%10000m1020hPa70%
15-Jun-2024 12:00Broken Clouds15°C4 mph, NE64%10000m1021hPa70%
15-Jun-2024 15:00Broken Clouds21°C7 mph, E70%10000m1021hPa50%
15-Jun-2024 18:00Broken Clouds23°C7 mph, E69%10000m1020hPa46%
15-Jun-2024 21:00Overcast Clouds24°C4 mph, E100%10000m1018hPa46%
16-Jun-2024 00:00Overcast Clouds21°C7 mph, E100%10000m1018hPa70%
16-Jun-2024 03:00Overcast Clouds17°C7 mph, E89%10000m1019hPa74%
16-Jun-2024 06:00Overcast Clouds18°C7 mph, SE94%10000m1017hPa69%
16-Jun-2024 09:00Overcast Clouds15°C7 mph, SE97%10000m1018hPa75%
16-Jun-2024 12:00Overcast Clouds17°C9 mph, SE98%10000m1017hPa78%
16-Jun-2024 15:00Overcast Clouds23°C9 mph, SE100%10000m1017hPa57%
16-Jun-2024 18:00Overcast Clouds28°C11 mph, S88%10000m1015hPa46%
16-Jun-2024 21:00Clear Sky29°C11 mph, S9%10000m1013hPa46%
17-Jun-2024 00:00Clear Sky26°C9 mph, S7%10000m1013hPa71%
17-Jun-2024 03:00Light Rain23°C9 mph, SW58%10000m1013hPa89%
17-Jun-2024 06:00Moderate Rain22°C9 mph, SW79%7839m1013hPa92%
17-Jun-2024 09:00Light Rain22°C9 mph, SW96%10000m1014hPa94%
17-Jun-2024 12:00Light Rain24°C11 mph, SW88%10000m1015hPa89%
17-Jun-2024 15:00Light Rain28°C16 mph, SW75%10000m1015hPa72%
17-Jun-2024 18:00Broken Clouds32°C13 mph, SW54%10000m1014hPa58%
17-Jun-2024 21:00Few Clouds33°C11 mph, SW16%10000m1014hPa56%
18-Jun-2024 00:00Few Clouds29°C7 mph, SW11%10000m1013hPa73%